Time;durP1;ratioP1;P1;durP2;ratioP2;P2;SDS_P1;SDS_P2;PMS_P1;PMS_P2;Temp;Humidity;BMP_temperature;BMP_pressure;BME280_temperature;BME280_humidity;BME280_pressure;Samples;Min_cycle;Max_cycle;Signal;HPM_P1;HPM_P2
2023/10/08 00:00:53;;;;;;;15.35;5.40;;;;;;;20.02;52.07;102303.06;16121285;19;131676;-60
2023/10/08 00:06:17;;;;;;;15.82;5.22;;;;;;;20.01;52.21;102294.97;16122204;19;130707;-60
2023/10/08 00:11:40;;;;;;;16.20;5.35;;;;;;;20.01;51.83;102300.53;16121206;19;129734;-60
2023/10/08 00:17:02;;;;;;;16.38;4.40;;;;;;;20.00;51.77;102299.66;16117201;19;130109;-60
2023/10/08 00:22:25;;;;;;;11.02;4.60;;;;;;;20.00;52.00;102305.22;16121753;19;129443;-60
2023/10/08 00:27:50;;;;;;;12.13;4.88;;;;;;;19.98;52.02;102313.75;16119918;19;130248;-59
2023/10/08 00:33:13;;;;;;;10.75;4.57;;;;;;;19.97;51.75;102309.25;16117970;19;132101;-59
2023/10/08 00:38:36;;;;;;;13.82;4.97;;;;;;;19.97;52.16;102306.47;16117740;19;130499;-59
2023/10/08 00:44:01;;;;;;;11.98;4.22;;;;;;;19.97;51.89;102311.19;16117543;19;130132;-59
2023/10/08 00:49:31;;;;;;;13.25;4.78;;;;;;;19.96;51.69;102321.44;16113481;19;131040;-57
2023/10/08 01:00:32;;;;;;;12.00;4.32;;;;;;;19.96;51.98;102320.59;16122426;19;129469;-59
2023/10/08 01:05:57;;;;;;;12.00;4.70;;;;;;;19.94;51.95;102312.47;16116773;19;130820;-59
2023/10/08 01:11:43;;;;;;;11.38;4.25;;;;;;;19.93;51.67;102310.81;16115002;19;130050;-59
2023/10/08 01:17:07;;;;;;;11.30;4.22;;;;;;;19.93;52.06;102321.91;16113061;19;130576;-59
2023/10/08 01:22:29;;;;;;;8.25;3.83;;;;;;;19.91;51.61;102303.75;16111124;19;130709;-59
2023/10/08 01:28:00;;;;;;;9.18;4.80;;;;;;;19.93;51.80;102298.81;16111523;19;130124;-59
2023/10/08 01:33:27;;;;;;;13.20;4.68;;;;;;;19.90;52.02;102293.69;16105335;19;129519;-59
2023/10/08 01:38:49;;;;;;;8.23;4.47;;;;;;;19.90;51.54;102296.47;16105379;19;131007;-59
2023/10/08 01:44:11;;;;;;;9.65;4.53;;;;;;;19.90;52.02;102289.00;16106615;19;130877;-59
2023/10/08 01:49:33;;;;;;;8.65;4.03;;;;;;;19.89;51.69;102287.31;16105203;19;130842;-59
2023/10/08 01:54:56;;;;;;;11.15;4.18;;;;;;;19.88;51.63;102285.59;16104332;19;130356;-58
2023/10/08 02:00:22;;;;;;;9.55;3.78;;;;;;;19.88;51.99;102284.75;16109096;19;129533;-59
2023/10/08 02:05:45;;;;;;;6.60;3.83;;;;;;;19.87;51.81;102278.34;16111264;19;130959;-59
2023/10/08 02:11:08;;;;;;;8.88;3.83;;;;;;;19.87;52.03;102272.78;16110826;19;130819;-59
2023/10/08 02:16:30;;;;;;;7.22;4.10;;;;;;;19.86;51.87;102292.47;16114073;19;130746;-59
2023/10/08 02:21:54;;;;;;;8.73;3.85;;;;;;;19.86;51.53;102295.25;16113408;19;130662;-60
2023/10/08 02:27:16;;;;;;;8.68;3.38;;;;;;;19.84;51.54;102296.31;16115912;19;129896;-62
2023/10/08 02:32:42;;;;;;;7.50;3.55;;;;;;;19.83;51.71;102300.16;16112027;19;129540;-63
2023/10/08 02:38:06;;;;;;;9.68;4.13;;;;;;;19.84;51.74;102295.44;16111222;19;130335;-66
2023/10/08 02:43:30;;;;;;;8.73;3.80;;;;;;;19.82;51.93;102305.91;16110497;19;130462;-59
2023/10/08 02:48:52;;;;;;;7.95;3.75;;;;;;;19.81;51.67;102302.28;16111728;19;129989;-60
2023/10/08 02:54:23;;;;;;;6.30;3.35;;;;;;;19.82;51.80;102317.88;16108034;19;129721;-59
2023/10/08 02:59:45;;;;;;;10.10;3.90;;;;;;;19.81;51.82;102324.50;16107324;19;130019;-59
2023/10/08 03:05:08;;;;;;;6.95;3.40;;;;;;;19.81;51.55;102318.13;16106010;19;131620;-59
2023/10/08 03:10:33;;;;;;;6.15;3.30;;;;;;;19.81;51.58;102320.91;16106830;19;130452;-58
2023/10/08 03:27:20;;;;;;;7.03;3.20;;;;;;;19.79;51.39;102317.47;16123759;19;129841;-59
2023/10/08 03:32:45;;;;;;;6.05;3.40;;;;;;;19.78;51.82;102324.09;16122184;19;130442;-58
2023/10/08 03:38:28;;;;;;;5.35;3.30;;;;;;;19.77;51.46;102323.25;16125092;19;130228;-59
2023/10/08 03:43:56;;;;;;;7.00;3.08;;;;;;;19.77;51.30;102358.50;16125053;19;132220;-57
2023/10/08 03:54:48;;;;;;;5.50;3.35;;;;;;;19.76;51.58;102357.63;16123746;19;130193;-60
2023/10/08 04:00:28;;;;;;;5.50;2.67;;;;;;;19.76;51.44;102359.56;16124263;19;130689;-59
2023/10/08 04:06:14;;;;;;;5.97;3.22;;;;;;;19.75;51.63;102358.72;16120461;19;130717;-59
2023/10/08 04:11:35;;;;;;;6.80;3.30;;;;;;;19.75;51.57;102352.31;16119450;19;130518;-61
2023/10/08 04:16:58;;;;;;;4.45;3.00;;;;;;;19.73;51.28;102355.31;16126330;19;129740;-59
2023/10/08 04:22:21;;;;;;;9.25;3.20;;;;;;;19.73;51.36;102354.44;16117661;19;130925;-60
2023/10/08 04:27:42;;;;;;;5.47;3.03;;;;;;;19.74;51.71;102356.16;16119410;19;131095;-60
2023/10/08 04:33:12;;;;;;;5.90;3.20;;;;;;;19.73;51.32;102357.22;16115044;19;129729;-60
2023/10/08 04:38:39;;;;;;;4.68;2.75;;;;;;;19.71;51.71;102342.69;16117534;19;130858;-59
2023/10/08 04:44:08;;;;;;;4.75;3.03;;;;;;;19.71;51.86;102363.00;16117824;19;129972;-59
2023/10/08 04:49:32;;;;;;;3.72;2.80;;;;;;;19.71;51.31;102368.56;16117699;19;130304;-60
2023/10/08 04:54:54;;;;;;;6.90;3.20;;;;;;;19.70;51.72;102361.28;16116565;19;129431;-60
2023/10/08 05:00:26;;;;;;;4.95;3.40;;;;;;;19.69;51.73;102352.09;16112721;19;130844;-60
2023/10/08 05:06:08;;;;;;;6.88;3.50;;;;;;;19.68;51.46;102353.19;16114196;19;130871;-60
2023/10/08 05:12:10;;;;;;;5.10;2.92;;;;;;;19.65;51.24;102353.63;16106973;19;130765;-59
2023/10/08 05:22:44;;;;;;;4.53;2.60;;;;;;;19.68;51.23;102372.63;16115175;19;130210;-61
2023/10/08 05:28:24;;;;;;;8.70;3.10;;;;;;;19.74;51.22;102372.81;16116518;19;131344;-58
2023/10/08 05:39:40;;;;;;;6.63;2.88;;;;;;;19.84;50.99;102384.31;16112521;19;130189;-60
2023/10/08 05:50:39;;;;;;;8.30;2.53;;;;;;;19.85;51.09;102386.00;16095861;19;131386;-49
2023/10/08 05:56:16;;;;;;;8.23;3.22;;;;;;;19.87;51.05;102394.97;16087425;19;132339;-52
2023/10/08 06:01:41;;;;;;;6.25;3.28;;;;;;;19.86;51.04;102415.50;16109451;19;129697;-46
2023/10/08 06:07:20;;;;;;;7.80;2.70;;;;;;;19.85;51.11;102405.47;16106328;19;129982;-47
2023/10/08 06:12:49;;;;;;;4.57;2.70;;;;;;;19.83;51.13;102402.91;16111897;19;129770;-47
2023/10/08 06:18:14;;;;;;;8.38;2.92;;;;;;;19.82;50.79;102398.44;16111436;19;129819;-46
2023/10/08 06:23:41;;;;;;;9.30;3.10;;;;;;;19.81;50.73;102407.00;16110571;19;129865;-46
2023/10/08 06:29:18;;;;;;;5.57;2.45;;;;;;;19.81;50.69;102413.38;16103952;19;130277;-47
2023/10/08 06:34:40;;;;;;;6.22;2.60;;;;;;;19.82;51.03;102405.88;16107890;19;130177;-47
2023/10/08 06:40:04;;;;;;;9.77;2.58;;;;;;;19.82;50.83;102414.22;16108010;19;130357;-50
2023/10/08 06:45:27;;;;;;;7.88;2.72;;;;;;;19.82;50.62;102415.09;16104505;19;130103;-49
2023/10/08 06:50:51;;;;;;;9.35;2.40;;;;;;;19.83;50.67;102411.25;16117471;19;131985;-46
2023/10/08 06:56:15;;;;;;;5.20;2.40;;;;;;;19.84;50.50;102415.72;16120198;19;129788;-49
2023/10/08 07:01:39;;;;;;;5.75;2.63;;;;;;;19.85;50.86;102422.13;16125799;19;129897;-46
2023/10/08 07:07:01;;;;;;;7.43;3.17;;;;;;;19.87;50.48;102424.69;16115373;19;129629;-46
2023/10/08 07:12:24;;;;;;;8.15;3.15;;;;;;;19.89;50.39;102423.41;16122273;19;129756;-49
2023/10/08 07:17:51;;;;;;;10.02;3.17;;;;;;;19.92;50.47;102442.41;16119637;19;130529;-46
2023/10/08 07:23:19;;;;;;;7.45;2.30;;;;;;;19.95;50.25;102444.72;16119704;19;129743;-50
2023/10/08 07:28:41;;;;;;;5.80;2.97;;;;;;;19.98;50.11;102430.41;16118331;19;130576;-46
2023/10/08 07:34:17;;;;;;;11.35;2.97;;;;;;;20.05;49.53;102429.59;16116245;19;130613;-46
2023/10/08 07:39:49;;;;;;;8.18;2.92;;;;;;;20.10;49.24;102443.66;16116996;19;130691;-47
2023/10/08 07:45:17;;;;;;;15.95;3.45;;;;;;;20.17;49.12;102443.63;16120863;19;130258;-45
2023/10/08 07:50:45;;;;;;;12.63;3.67;;;;;;;20.26;49.40;102433.97;16121053;19;130945;-47
2023/10/08 07:56:08;;;;;;;9.65;3.10;;;;;;;20.44;48.72;102411.00;16117410;19;129960;-47
2023/10/08 08:01:33;;;;;;;9.40;3.85;;;;;;;21.66;46.93;102411.78;16119677;19;130249;-49
2023/10/08 08:06:55;;;;;;;14.25;3.67;;;;;;;23.23;43.80;102408.31;16123815;19;130813;-47
2023/10/08 08:12:19;;;;;;;8.32;3.00;;;;;;;24.37;41.47;102405.25;16119520;19;130695;-52
2023/10/08 08:17:42;;;;;;;8.77;2.75;;;;;;;25.13;39.58;102398.50;16119915;19;129679;-52
2023/10/08 08:23:08;;;;;;;8.05;3.28;;;;;;;25.70;38.04;102394.59;16116534;19;129907;-52
2023/10/08 08:28:30;;;;;;;10.07;3.60;;;;;;;26.09;37.07;102408.53;16120690;19;132236;-47
2023/10/08 08:33:53;;;;;;;12.48;3.60;;;;;;;25.05;38.46;102421.34;16114191;19;131237;-49
2023/10/08 08:39:32;;;;;;;9.35;3.00;;;;;;;23.91;40.34;102431.13;16118096;19;132398;-48
2023/10/08 08:44:57;;;;;;;11.23;3.47;;;;;;;23.08;41.24;102435.84;16115132;19;130689;-50
2023/10/08 08:50:21;;;;;;;11.45;3.08;;;;;;;22.55;42.68;102435.56;16114773;19;130245;-49
2023/10/08 08:55:43;;;;;;;9.18;3.33;;;;;;;22.18;43.54;102444.81;16113802;19;130431;-53
2023/10/08 09:01:09;;;;;;;10.48;2.92;;;;;;;21.91;44.02;102461.00;16111417;19;129958;-53
2023/10/08 09:06:37;;;;;;;10.25;3.30;;;;;;;21.70;44.86;102473.44;16112533;19;130474;-54
2023/10/08 09:11:59;;;;;;;12.32;3.72;;;;;;;21.53;45.11;102468.47;16113929;19;129634;-50
2023/10/08 09:17:23;;;;;;;9.50;3.00;;;;;;;21.39;45.21;102473.28;16113533;19;130156;-51
2023/10/08 09:22:47;;;;;;;9.38;2.97;;;;;;;21.30;45.75;102477.41;16113261;19;130150;-51
2023/10/08 09:28:12;;;;;;;5.93;2.90;;;;;;;21.21;46.32;102466.56;16114366;19;129768;-51
2023/10/08 09:33:35;;;;;;;6.47;2.58;;;;;;;21.13;46.11;102483.53;16112759;19;130883;-51
2023/10/08 09:39:04;;;;;;;13.52;3.15;;;;;;;21.08;46.31;102483.34;16109300;19;130252;-51
2023/10/08 09:44:26;;;;;;;9.73;2.53;;;;;;;21.03;46.88;102480.41;16083456;19;131134;-56
2023/10/08 09:50:07;;;;;;;5.43;2.85;;;;;;;21.01;47.27;102474.22;16110203;19;129547;-50
2023/10/08 09:55:29;;;;;;;9.65;3.03;;;;;;;20.94;46.95;102481.75;16106271;19;129343;-52
2023/10/08 10:00:55;;;;;;;6.80;2.80;;;;;;;20.88;47.43;102484.34;16112637;19;129643;-52
2023/10/08 10:06:20;;;;;;;8.43;2.70;;;;;;;20.85;47.39;102483.97;16110661;19;130438;-52
2023/10/08 10:11:52;;;;;;;9.15;2.53;;;;;;;20.81;47.83;102483.53;16114226;19;131676;-46
2023/10/08 10:17:20;;;;;;;8.35;2.53;;;;;;;20.77;48.14;102473.94;16111752;19;132276;-47
2023/10/08 10:23:42;;;;;;;3.80;2.13;;;;;;;20.73;47.82;102481.84;16122719;19;129950;-46
2023/10/08 10:29:09;;;;;;;7.57;2.83;;;;;;;20.69;48.40;102479.72;16124065;19;131088;-50
2023/10/08 10:34:34;;;;;;;4.30;2.17;;;;;;;20.67;48.48;102471.63;16124981;19;129733;-48
2023/10/08 10:40:00;;;;;;;6.82;2.90;;;;;;;20.67;48.56;102471.63;16124791;19;129869;-47
2023/10/08 10:45:42;;;;;;;5.25;2.55;;;;;;;20.69;48.27;102496.41;16125152;19;132000;-49
2023/10/08 10:56:30;;;;;;;3.97;1.90;;;;;;;20.68;48.76;102472.44;16126593;19;129829;-46
2023/10/08 11:02:05;;;;;;;4.75;2.22;;;;;;;20.70;48.50;102467.53;16129277;19;131331;-49
2023/10/08 11:07:29;;;;;;;5.53;2.38;;;;;;;20.71;49.07;102467.31;16124847;19;129713;-48
2023/10/08 11:12:54;;;;;;;4.10;1.83;;;;;;;20.72;48.86;102454.25;16123608;19;131152;-49
2023/10/08 11:18:18;;;;;;;4.45;2.28;;;;;;;20.74;48.77;102449.31;16122672;19;131678;-46
2023/10/08 11:24:28;;;;;;;4.67;2.20;;;;;;;20.73;48.96;102444.84;16123055;19;129545;-46
2023/10/08 11:29:31;;;;;;;6.38;2.20;;;;;;;20.74;48.85;102443.75;16120798;19;130395;-49
2023/10/08 11:34:59;;;;;;;6.50;2.50;;;;;;;20.74;49.33;102441.81;16122793;19;130418;-45
2023/10/08 11:40:28;;;;;;;3.72;1.90;;;;;;;20.75;49.19;102423.22;16119547;19;130610;-46
2023/10/08 11:45:52;;;;;;;4.00;1.95;;;;;;;20.75;49.25;102426.00;16123655;19;129538;-46
2023/10/08 11:51:17;;;;;;;4.45;1.85;;;;;;;20.74;49.27;102433.47;16124125;19;129312;-48
2023/10/08 11:56:39;;;;;;;2.83;1.90;;;;;;;20.75;49.25;102439.91;16119233;19;129623;-45
2023/10/08 12:02:01;;;;;;;2.78;1.73;;;;;;;20.75;49.33;102431.56;16117968;19;129656;-48
2023/10/08 12:07:27;;;;;;;5.60;1.88;;;;;;;20.75;49.34;102423.22;16118498;19;129574;-45
2023/10/08 12:12:54;;;;;;;3.40;2.05;;;;;;;20.75;49.53;102412.09;16118802;19;130593;-48
2023/10/08 12:18:24;;;;;;;2.90;1.90;;;;;;;20.75;49.80;102400.97;16117158;19;131270;-45
2023/10/08 12:23:46;;;;;;;5.38;2.00;;;;;;;20.74;49.51;102405.66;16120700;19;131126;-47
2023/10/08 12:29:09;;;;;;;4.15;2.05;;;;;;;20.75;49.42;102396.28;16116461;19;130283;-45
2023/10/08 12:34:35;;;;;;;4.03;2.13;;;;;;;20.76;49.54;102391.59;16118899;19;129035;-43
2023/10/08 12:40:11;;;;;;;;;;;;;;;20.74;49.73;102390.91;16115343;19;129417;-45
2023/10/08 12:45:33;;;;;;;4.25;1.90;;;;;;;20.76;49.70;102380.47;16114815;19;129965;-47
2023/10/08 12:50:58;;;;;;;2.97;1.80;;;;;;;20.76;49.73;102374.91;16115775;19;128957;-47
2023/10/08 12:56:31;;;;;;;2.80;1.67;;;;;;;20.76;49.67;102374.91;16113813;19;129503;-45
2023/10/08 13:01:56;;;;;;;5.45;2.03;;;;;;;20.77;49.79;102365.47;16120358;19;129297;-44
2023/10/08 13:07:21;;;;;;;2.90;1.70;;;;;;;20.77;49.96;102365.47;16114705;19;131219;-48
2023/10/08 13:12:43;;;;;;;5.05;2.17;;;;;;;20.77;49.57;102353.47;16116415;19;130295;-45
2023/10/08 13:18:05;;;;;;;3.65;1.80;;;;;;;20.79;50.03;102351.34;16112725;19;129584;-49
2023/10/08 13:23:27;;;;;;;3.35;2.00;;;;;;;20.78;49.60;102350.50;16115101;19;129941;-47
2023/10/08 13:28:49;;;;;;;4.45;2.05;;;;;;;20.78;49.84;102339.38;16113225;19;131538;-47
2023/10/08 13:34:12;;;;;;;5.50;2.22;;;;;;;20.80;49.76;102342.75;16113077;19;130263;-45
2023/10/08 13:39:35;;;;;;;3.17;1.77;;;;;;;20.79;49.81;102338.28;16121748;19;129569;-47
2023/10/08 13:44:57;;;;;;;3.40;1.90;;;;;;;20.80;49.56;102342.75;16112559;19;131090;-47
2023/10/08 13:50:21;;;;;;;4.05;2.13;;;;;;;20.79;49.75;102335.50;16114639;19;129367;-53
2023/10/08 13:55:45;;;;;;;5.60;2.00;;;;;;;20.79;49.73;102324.38;16105287;19;131580;-47
2023/10/08 14:01:19;;;;;;;3.15;1.70;;;;;;;20.80;49.91;102320.50;16107399;19;129658;-48
2023/10/08 14:06:45;;;;;;;4.03;1.55;;;;;;;20.79;49.85;102313.25;16106277;19;130964;-46
2023/10/08 14:12:10;;;;;;;5.72;1.90;;;;;;;20.81;49.91;102310.25;16109050;19;130124;-47
2023/10/08 14:17:48;;;;;;;3.42;1.83;;;;;;;20.80;50.04;102300.19;16108219;19;129566;-53
2023/10/08 14:23:10;;;;;;;2.40;1.55;;;;;;;20.78;49.77;102303.22;16112594;19;132710;-47
2023/10/08 14:28:40;;;;;;;3.30;1.65;;;;;;;20.77;50.00;102298.72;16113612;19;129682;-45
2023/10/08 14:34:29;;;;;;;4.97;1.75;;;;;;;20.76;49.85;102294.25;16111510;19;130110;-47
2023/10/08 14:45:35;;;;;;;2.70;1.55;;;;;;;20.75;49.60;102278.59;16106573;19;129163;-46
2023/10/08 14:50:58;;;;;;;5.03;1.92;;;;;;;20.74;50.06;102288.84;16105939;19;130484;-46
2023/10/08 14:56:23;;;;;;;3.85;1.80;;;;;;;20.74;49.60;102276.91;16100553;19;130503;-45
2023/10/08 15:01:47;;;;;;;5.90;1.92;;;;;;;20.72;49.67;102270.72;16108639;19;131541;-48
2023/10/08 15:07:11;;;;;;;8.45;2.97;;;;;;;20.72;49.67;102284.63;16109532;19;130209;-46
2023/10/08 15:12:34;;;;;;;10.18;2.78;;;;;;;20.72;49.73;102279.03;16125733;19;130157;-47
2023/10/08 15:17:56;;;;;;;6.60;2.30;;;;;;;20.70;49.97;102275.63;16124620;19;131180;-45
2023/10/08 15:23:21;;;;;;;9.40;2.80;;;;;;;20.70;50.24;102270.06;16123292;19;129393;-47
2023/10/08 15:28:43;;;;;;;11.80;3.33;;;;;;;20.68;50.10;102263.88;16120986;19;129561;-45
2023/10/08 15:34:05;;;;;;;17.33;3.25;;;;;;;20.64;50.31;102263.50;16123803;19;130286;-46
2023/10/08 15:39:29;;;;;;;12.05;3.50;;;;;;;20.62;50.09;102268.44;16120505;19;130359;-47
2023/10/08 15:44:50;;;;;;;12.10;3.47;;;;;;;20.59;50.26;102255.84;16118699;19;129624;-45
2023/10/08 15:50:13;;;;;;;31.13;4.15;;;;;;;20.58;50.30;102265.25;16117915;19;130711;-47
2023/10/08 15:55:35;;;;;;;14.70;4.18;;;;;;;20.56;50.38;102256.28;16121685;19;133495;-46
2023/10/08 16:00:57;;;;;;;17.13;4.05;;;;;;;20.53;50.15;102253.13;16123019;19;129739;-46
2023/10/08 16:06:20;;;;;;;12.55;3.95;;;;;;;20.52;50.15;102257.84;16119271;19;130435;-45
2023/10/08 16:11:42;;;;;;;8.15;3.63;;;;;;;20.49;50.58;102261.06;16113872;19;130318;-46
2023/10/08 16:17:07;;;;;;;8.00;3.78;;;;;;;20.48;50.15;102256.59;16111683;19;129428;-49
2023/10/08 16:22:29;;;;;;;12.00;3.53;;;;;;;20.45;50.36;102254.25;16113745;19;129500;-50
2023/10/08 16:27:53;;;;;;;13.05;3.90;;;;;;;20.44;50.35;102258.09;16119105;19;130613;-51
2023/10/08 16:33:15;;;;;;;10.52;4.18;;;;;;;20.43;50.24;102259.22;16122997;19;130947;-50
2023/10/08 16:38:37;;;;;;;7.28;3.83;;;;;;;20.43;50.14;102256.44;16123835;19;130653;-52
2023/10/08 16:43:59;;;;;;;9.27;3.95;;;;;;;20.41;50.43;102255.81;16123156;19;130064;-51
2023/10/08 16:49:23;;;;;;;8.63;4.10;;;;;;;20.39;50.63;102250.44;16119343;19;129943;-53
2023/10/08 16:54:45;;;;;;;8.25;3.33;;;;;;;20.39;50.63;102253.22;16116569;19;129714;-46
2023/10/08 17:00:11;;;;;;;7.65;3.40;;;;;;;20.38;50.68;102253.47;16116340;19;129825;-45
2023/10/08 17:05:33;;;;;;;9.02;3.75;;;;;;;20.37;50.19;102260.94;16119047;19;130679;-48
2023/10/08 17:10:55;;;;;;;8.25;3.50;;;;;;;20.35;50.29;102242.78;16106633;19;130005;-47
2023/10/08 17:16:17;;;;;;;8.10;3.63;;;;;;;20.34;50.27;102246.66;16112507;19;131664;-47
2023/10/08 17:21:39;;;;;;;8.85;3.75;;;;;;;20.32;50.56;102248.78;16115937;19;131162;-46
2023/10/08 17:27:02;;;;;;;15.10;4.35;;;;;;;20.32;51.06;102240.44;16115174;19;129489;-45
2023/10/08 17:32:36;;;;;;;15.98;3.90;;;;;;;20.36;50.76;102238.94;16106173;19;132785;-45
2023/10/08 17:37:58;;;;;;;7.78;3.72;;;;;;;20.39;51.16;102244.88;16110579;19;129658;-45
2023/10/08 17:43:20;;;;;;;12.20;4.05;;;;;;;20.42;50.88;102246.38;16106042;19;131025;-46
2023/10/08 17:48:42;;;;;;;10.85;3.65;;;;;;;20.42;50.67;102240.81;16107645;19;131645;-46
2023/10/08 17:54:05;;;;;;;10.73;4.05;;;;;;;20.46;50.90;102230.94;16110526;19;130186;-46
2023/10/08 17:59:27;;;;;;;13.55;4.10;;;;;;;20.47;51.04;102229.03;16111098;19;129675;-45
2023/10/08 18:04:49;;;;;;;16.98;4.20;;;;;;;20.50;50.94;102229.41;16102515;19;131144;-46
2023/10/08 18:10:12;;;;;;;9.95;3.97;;;;;;;20.51;51.07;102225.56;16102464;19;129771;-46
2023/10/08 18:15:35;;;;;;;21.90;4.40;;;;;;;20.49;50.98;102212.97;16106973;19;130980;-45
2023/10/08 18:20:57;;;;;;;17.27;4.18;;;;;;;20.51;50.89;102210.78;16101846;19;130523;-47
2023/10/08 18:26:23;;;;;;;18.25;4.72;;;;;;;20.51;51.26;102200.53;16099314;19;130719;-47
2023/10/08 18:31:45;;;;;;;15.32;4.03;;;;;;;20.51;50.99;102203.31;16105768;19;131109;-46
2023/10/08 18:37:09;;;;;;;10.05;3.90;;;;;;;20.54;51.39;102190.88;16107844;19;130189;-47
2023/10/08 18:42:31;;;;;;;10.90;3.10;;;;;;;20.54;51.09;102186.19;16118326;19;129670;-45
2023/10/08 18:47:53;;;;;;;14.02;4.03;;;;;;;20.55;51.51;102176.78;16125019;19;131758;-45
2023/10/08 18:53:15;;;;;;;11.50;3.30;;;;;;;20.54;51.42;102168.63;16124222;19;130654;-46
2023/10/08 18:58:39;;;;;;;14.02;3.90;;;;;;;20.54;51.07;102163.94;16122753;19;129584;-49
2023/10/08 19:04:03;;;;;;;15.00;3.55;;;;;;;20.54;51.38;102172.28;16121823;19;130005;-46
2023/10/08 19:09:25;;;;;;;12.68;3.40;;;;;;;20.53;50.94;102165.03;16123371;19;130918;-45
2023/10/08 19:14:48;;;;;;;9.30;3.80;;;;;;;20.53;51.20;102151.13;16123116;19;131008;-45
2023/10/08 19:20:11;;;;;;;9.45;3.08;;;;;;;20.54;51.00;102166.72;16124803;19;131754;-47
2023/10/08 19:25:35;;;;;;;12.52;4.05;;;;;;;20.52;51.25;102160.53;16120562;19;130212;-46
2023/10/08 19:30:58;;;;;;;9.88;3.67;;;;;;;20.53;51.16;102167.81;16118588;19;129607;-46
2023/10/08 19:36:20;;;;;;;13.30;4.00;;;;;;;20.54;51.17;102166.72;16118585;19;130989;-45
2023/10/08 19:41:43;;;;;;;14.45;3.88;;;;;;;20.53;51.70;102170.59;16117132;19;130677;-45
2023/10/08 19:47:05;;;;;;;10.48;4.03;;;;;;;20.53;51.78;102176.16;16115999;19;129745;-47
2023/10/08 19:52:27;;;;;;;11.52;4.10;;;;;;;20.52;51.39;102168.88;16115875;19;129841;-44
2023/10/08 19:57:52;;;;;;;7.63;3.45;;;;;;;20.53;51.22;102165.03;16113191;19;130231;-46
2023/10/08 20:03:14;;;;;;;9.35;3.55;;;;;;;20.52;51.52;102157.75;16116104;19;129731;-46
2023/10/08 20:08:36;;;;;;;8.77;3.42;;;;;;;20.53;51.52;102151.13;16114194;19;131129;-46
2023/10/08 20:13:58;;;;;;;20.40;4.28;;;;;;;20.54;51.71;102143.63;16121826;19;132180;-46
2023/10/08 20:19:22;;;;;;;15.45;4.13;;;;;;;20.52;51.81;102129.09;16114805;19;129653;-46
2023/10/08 20:24:44;;;;;;;16.38;4.40;;;;;;;20.50;51.51;102131.25;16117741;19;129808;-46
2023/10/08 20:30:11;;;;;;;13.38;3.30;;;;;;;20.48;51.64;102131.50;16115191;19;130373;-50
2023/10/08 20:35:34;;;;;;;23.33;4.85;;;;;;;20.47;51.67;102134.50;16116007;19;130845;-47
2023/10/08 20:40:56;;;;;;;13.05;3.45;;;;;;;20.44;51.24;102141.34;16113279;19;131840;-48
2023/10/08 20:46:19;;;;;;;13.65;3.72;;;;;;;20.41;51.25;102144.63;16116755;19;131584;-46
2023/10/08 20:51:43;;;;;;;13.18;3.85;;;;;;;20.39;51.54;102146.78;16113637;19;130399;-46
2023/10/08 20:57:06;;;;;;;22.27;3.70;;;;;;;20.38;51.49;102139.50;16111036;19;131522;-47
2023/10/08 21:02:29;;;;;;;13.70;4.15;;;;;;;20.37;51.68;102146.16;16119099;19;129685;-49
2023/10/08 21:07:51;;;;;;;14.55;3.92;;;;;;;20.34;51.51;102143.81;16109201;19;131577;-46
2023/10/08 21:13:13;;;;;;;9.15;3.40;;;;;;;20.32;51.33;102134.84;16111722;19;131351;-48
2023/10/08 21:18:35;;;;;;;10.02;3.38;;;;;;;20.31;51.81;102122.91;16114028;19;131299;-47
2023/10/08 21:23:57;;;;;;;8.85;3.38;;;;;;;20.31;51.69;102128.47;16108383;19;130443;-46
2023/10/08 21:29:19;;;;;;;9.10;3.30;;;;;;;20.29;51.24;102137.03;16117017;19;130843;-47
2023/10/08 21:34:41;;;;;;;9.38;3.17;;;;;;;20.28;51.67;102140.88;16110009;19;129894;-46
2023/10/08 21:40:09;;;;;;;8.98;3.40;;;;;;;20.27;51.43;102132.75;16108269;19;130367;-46
2023/10/08 21:45:31;;;;;;;7.82;3.17;;;;;;;20.26;51.61;102122.72;16111814;19;131994;-46
2023/10/08 21:50:53;;;;;;;10.35;3.33;;;;;;;20.24;51.52;102117.41;16111339;19;131687;-46
2023/10/08 21:56:15;;;;;;;6.28;3.30;;;;;;;20.24;51.65;102111.84;16109696;19;130678;-48
2023/10/08 22:01:38;;;;;;;12.75;3.50;;;;;;;20.22;51.44;102105.66;16110651;19;129871;-47
2023/10/08 22:07:05;;;;;;;10.65;3.50;;;;;;;20.23;51.29;102103.75;16107649;19;131619;-46
2023/10/08 22:12:28;;;;;;;7.90;3.28;;;;;;;20.21;51.45;102106.75;16108355;19;129839;-48
2023/10/08 22:17:49;;;;;;;7.80;3.20;;;;;;;20.21;51.58;102103.97;16109302;19;129692;-46
2023/10/08 22:23:14;;;;;;;6.75;3.08;;;;;;;20.20;51.74;102102.25;16109102;19;131275;-48
2023/10/08 22:28:37;;;;;;;6.88;3.20;;;;;;;20.18;51.25;102101.66;16100259;19;130760;-50
2023/10/08 22:34:04;;;;;;;6.13;3.00;;;;;;;20.18;51.17;102104.44;16102510;19;130024;-46
2023/10/08 22:39:28;;;;;;;5.78;3.03;;;;;;;20.18;51.33;102093.31;16102227;19;129332;-46
2023/10/08 22:44:54;;;;;;;7.90;3.00;;;;;;;20.17;51.39;102088.84;16104210;19;130567;-46
2023/10/08 22:51:04;;;;;;;7.50;3.63;;;;;;;20.16;51.33;102081.59;16104121;19;130711;-46
2023/10/08 22:56:06;;;;;;;7.22;3.40;;;;;;;20.16;51.06;102087.13;16104417;19;130538;-46
2023/10/08 23:01:29;;;;;;;8.63;3.35;;;;;;;20.15;51.29;102088.22;16105732;19;129956;-46
2023/10/08 23:06:52;;;;;;;5.82;3.08;;;;;;;20.15;51.56;102068.78;16105982;19;129678;-47
2023/10/08 23:12:17;;;;;;;10.27;3.10;;;;;;;20.15;51.44;102071.53;16105782;19;130740;-46
2023/10/08 23:17:41;;;;;;;5.15;2.80;;;;;;;20.13;51.09;102062.59;16107861;19;130605;-46
2023/10/08 23:23:06;;;;;;;6.28;3.15;;;;;;;20.12;51.31;102053.38;16104400;19;130442;-46
2023/10/08 23:28:28;;;;;;;6.05;2.83;;;;;;;20.13;51.05;102054.25;16108112;19;129942;-46
2023/10/08 23:33:51;;;;;;;7.60;3.22;;;;;;;20.11;51.06;102062.81;16116462;19;132806;-47
2023/10/08 23:39:25;;;;;;;8.02;3.33;;;;;;;20.11;51.37;102059.19;16118583;19;131325;-48
2023/10/08 23:44:51;;;;;;;5.25;2.80;;;;;;;20.10;51.19;102060.25;16117292;19;131330;-48
2023/10/08 23:50:15;;;;;;;9.23;3.42;;;;;;;20.09;51.36;102042.75;16117273;19;130944;-49
2023/10/08 23:56:00;;;;;;;5.63;2.78;;;;;;;20.08;51.14;102041.06;16116108;19;129520;-47
